Los Angeles, California
Current Conditions -  °F | °C
As of 8:47 PM on Saturday 22 Nov 2014 (Local Time) from KCQT Reporting Station
Clear Clear  
Wind Chill: 61°   Ceiling: Unl
Heat Index: 61°   Visibility: 10mi
Dew Point: 53°   Wind: 0mph
Humidity: 75%   Direction: NA
Pressure: 30.03"   Gusts: NA
Location:  34.05°N, 118.24°W
Report Text: KCQT 230447Z AUTO 00000KT 10SM CLR 16/12 A3003 RMK AO2 SLP169 T01610117
Loading
Personal Weather Stations






























Interactive Weather Map New forecast layout! Learn more

10-Day Weather Forecast

Advertisements
Track Severe Weather on mobile